MSC Ludovica — HPAF — position and weather

sailwx.info

Track history (hours):
 
Tides and Currents Weather Stations Pressure Air Temp Water Temp Dewpoint Dewpoint Depression Visibility Wind Speed Wind Dir Waves Ship Positions

MSC Ludovica

Last reported at 2014-Oct-19 22:33 UTC. Time now 2014-Oct-21 02:19 UTC.
Position N 36°60' E 023°54'.

Length 301 m; draft 12.2 m.

Type: Ship. MMSI: 351248000.

Date/timePositionNaut miles runAvg speedWind from/ knotsBaromVisibWave heightAir tempDewpointWater temp
2014-Oct-19 22:33N 36°60' E 023°54'2618.2
2014-Oct-19 21:08N 36°39' E 023°35'42319.5
2014-Oct-18 23:23N 36°27' E 014°48'1619.7
2014-Oct-18 22:34N 36°30' E 014°28'2020.0
2014-Oct-18 21:34N 36°34' E 014°04'2020.0
2014-Oct-18 20:32N 36°40' E 013°39'2020.1
2014-Oct-18 19:33N 36°45' E 013°15'2020.0
2014-Oct-18 18:34N 36°50' E 012°51'2020.0
2014-Oct-18 17:33N 36°53' E 012°27'2019.9
2014-Oct-18 16:33N 36°59' E 012°03'2020.0
2014-Oct-18 15:33N 37°09' E 011°42'4219.9
2014-Oct-18 13:28N 37°28' E 010°55'1819.9
2014-Oct-18 12:33N 37°33' E 010°33'2020.0
2014-Oct-18 11:34N 37°35' E 010°08'2119.9
2014-Oct-18 10:30N 37°31' E 009°42'1920.1
2014-Oct-18 09:33N 37°26' E 009°18'2120.1
2014-Oct-18 08:30N 37°22' E 008°53'1920.1
2014-Oct-18 07:33N 37°20' E 008°29'2220.8
2014-Oct-18 06:31N 37°20' E 008°02'13920.0
2014-Oct-17 23:33N 37°14' E 005°07'2020.1
2014-Oct-17 22:33N 37°13' E 004°41'2220.1
2014-Oct-17 21:28N 37°10' E 004°14'2420.1
2014-Oct-17 20:15N 37°06' E 003°44'9720.0
2014-Oct-17 15:23N 36°51' E 001°43'1720.3
2014-Oct-17 14:33N 36°49' E 001°23'2220.6
2014-Oct-17 13:30N 36°45' E 000°56'1920.2
2014-Oct-17 12:33N 36°42' E 000°32'2020.3
2014-Oct-17 11:33N 36°40' E 000°07'4220.0
2014-Oct-17 09:28N 36°33' W 000°44'20820.1
2014-Oct-16 23:05N 36°02' W 004°60'1220.7
2014-Oct-16 22:32N 35°60' W 005°14'21316.4
2014-Oct-16 09:33N 37°23' W 009°19'1918.9
2014-Oct-16 08:33N 37°39' W 009°07'1818.5
2014-Oct-16 07:33N 37°53' W 008°52'3 2.8
2014-Oct-16 06:31N 37°56' W 008°51'0 0.0
2014-Oct-16 05:31N 37°56' W 008°51'0 0.0
2014-Oct-16 04:31N 37°56' W 008°51'0 0.0
2014-Oct-16 03:31N 37°56' W 008°51'0 0.0
2014-Oct-16 02:31N 37°56' W 008°51'0 0.0
2014-Oct-16 01:31N 37°56' W 008°51'0 0.0
2014-Oct-16 00:31N 37°56' W 008°51'0 0.0
2014-Oct-15 23:31N 37°56' W 008°51'0 0.0
2014-Oct-15 22:31N 37°56' W 008°51'0 0.0
2014-Oct-15 21:31N 37°56' W 008°51'0 0.0
2014-Oct-15 20:31N 37°56' W 008°51'0 0.0
2014-Oct-15 19:28N 37°56' W 008°51'0 0.0
2014-Oct-15 18:31N 37°56' W 008°51'0 0.0
2014-Oct-15 17:31N 37°56' W 008°51'0 0.0
2014-Oct-15 16:28N 37°56' W 008°51'0 0.0
2014-Oct-15 15:31N 37°56' W 008°51'0 0.0
2014-Oct-15 14:31N 37°56' W 008°51'0 0.0
2014-Oct-15 13:31N 37°56' W 008°51'0 0.0
2014-Oct-15 12:31N 37°56' W 008°51'0 0.0
2014-Oct-15 11:31N 37°56' W 008°51'0 0.0
2014-Oct-15 10:31N 37°56' W 008°51'0 0.0
2014-Oct-15 09:31N 37°56' W 008°51'0 0.2
2014-Oct-15 08:34N 37°56' W 008°51'4 4.4
2014-Oct-15 07:33N 37°52' W 008°54'1 1.1
2014-Oct-15 06:33N 37°52' W 008°55'1 0.6
2014-Oct-15 05:34N 37°52' W 008°56'3 2.8
2014-Oct-15 04:34N 37°55' W 008°57'1 0.9
2014-Oct-15 03:34N 37°54' W 008°57'1 1.1
2014-Oct-15 02:34N 37°54' W 008°58'9 8.5
2014-Oct-15 01:33N 37°59' W 009°07'1717.5
2014-Oct-15 00:33N 38°08' W 009°26'2019.3
2014-Oct-14 23:32N 38°18' W 009°47'85217.4
2014-Oct-12 22:28N 50°33' E 000°18'1819.4
2014-Oct-12 21:33N 50°41' E 000°42'2221.5
2014-Oct-12 20:32N 50°55' E 001°09'2222.0
2014-Oct-12 19:33N 51°08' E 001°37'2120.8
2014-Oct-12 18:33N 51°24' E 001°58'1919.3
2014-Oct-12 17:33N 51°23' E 002°29'1615.6
2014-Oct-12 16:33N 51°25' E 002°54'1717.1
2014-Oct-12 15:33N 51°24' E 003°22'1212.5
2014-Oct-12 14:34N 51°26' E 003°41'10 9.8
2014-Oct-12 13:33N 51°23' E 003°56'7 7.0
2014-Oct-12 12:33N 51°22' E 004°07'6 6.2
2014-Oct-12 11:34N 51°21' E 004°17'0 0.0
2014-Oct-12 10:34N 51°21' E 004°17'2 2.0
2014-Oct-12 09:33N 51°20' E 004°20'0 0.3
2014-Oct-12 08:31N 51°20' E 004°20'0 0.0
2014-Oct-12 07:31N 51°20' E 004°20'0 0.0
2014-Oct-12 06:31N 51°20' E 004°20'0 0.0
2014-Oct-12 05:31N 51°20' E 004°20'0 0.0
2014-Oct-12 04:31N 51°20' E 004°20'0 0.0
2014-Oct-12 03:31N 51°20' E 004°20'0 0.0
2014-Oct-12 02:31N 51°20' E 004°20'0 0.0
2014-Oct-12 01:31N 51°20' E 004°20'0 0.0
2014-Oct-12 00:31N 51°20' E 004°20'0 0.0
2014-Oct-11 23:31N 51°20' E 004°20'0 0.0
2014-Oct-11 22:31N 51°20' E 004°20'0 0.0
2014-Oct-11 21:31N 51°20' E 004°20'0 0.0
2014-Oct-11 20:28N 51°20' E 004°20'0 0.0
2014-Oct-11 19:31N 51°20' E 004°20'0 0.0
2014-Oct-11 18:31N 51°20' E 004°20'0 0.0
2014-Oct-11 17:31N 51°20' E 004°20'0 0.0
2014-Oct-11 16:28N 51°20' E 004°20'0 0.0
2014-Oct-11 15:31N 51°20' E 004°20'0 0.0
2014-Oct-11 14:31N 51°20' E 004°20'0 0.0
2014-Oct-11 13:31N 51°20' E 004°20'0 0.0
2014-Oct-11 12:28N 51°20' E 004°20'0 0.0
2014-Oct-11 11:31N 51°20' E 004°20'0 0.0
2014-Oct-11 10:31N 51°20' E 004°20'0 0.0
2014-Oct-11 09:28N 51°20' E 004°20'0 0.0
2014-Oct-11 08:31N 51°20' E 004°20'2 2.2
2014-Oct-11 07:34N 51°21' E 004°17'0 0.4
2014-Oct-11 06:34N 51°21' E 004°17'6 6.3
2014-Oct-11 05:34N 51°22' E 004°07'8 7.6
2014-Oct-11 04:33N 51°22' E 003°55'1211.6
2014-Oct-11 03:33N 51°26' E 003°37'1111.4
2014-Oct-11 02:33N 51°24' E 003°19'1211.7
2014-Oct-11 01:33N 51°29' E 003°02'1616.0
2014-Oct-11 00:33N 51°43' E 003°14'9 9.4
2014-Oct-10 23:33N 51°52' E 003°17'1211.7
2014-Oct-10 22:33N 52°04' E 003°20'1916.5
2014-Oct-10 21:22N 52°23' E 003°26'2020.7
2014-Oct-10 20:24N 52°41' E 003°37'1720.3
2014-Oct-10 19:33N 52°55' E 003°55'1919.3
2014-Oct-10 18:33N 53°08' E 004°18'1818.4
2014-Oct-10 17:33N 53°23' E 004°35'1818.1
2014-Oct-10 16:34N 53°34' E 004°60'2120.8
2014-Oct-10 15:33N 53°40' E 005°33'2121.2
2014-Oct-10 14:33N 53°48' E 006°07'4920.4
2014-Oct-10 12:09N 53°60' E 007°27'1119.0
2014-Oct-10 11:33N 54°02' E 007°46'1717.2
2014-Oct-10 10:33N 54°00' E 008°15'1414.3
2014-Oct-10 09:34N 53°57' E 008°39'1313.4
2014-Oct-10 08:33N 53°51' E 008°60'1212.4
2014-Oct-10 07:33N 53°50' E 009°21'1514.6
2014-Oct-10 06:33N 53°38' E 009°32'1212.1
2014-Oct-10 05:33N 53°33' E 009°51'2 1.9
2014-Oct-10 04:32N 53°32' E 009°54'0 0.0
2014-Oct-10 03:32N 53°32' E 009°54'0 0.0
2014-Oct-10 02:32N 53°32' E 009°54'0 0.0
2014-Oct-10 01:32N 53°32' E 009°54'0 0.0
2014-Oct-10 00:32N 53°32' E 009°54'0 0.0
2014-Oct-09 23:32N 53°32' E 009°54'  
Track history (hours):
 
Tides and Currents Weather Stations Pressure Air Temp Water Temp Dewpoint Dewpoint Depression Visibility Wind Speed Wind Dir Waves Ship Positions

MSC Ludovica

Last reported at 2014-Oct-19 22:33 UTC. Time now 2014-Oct-21 02:19 UTC.
Position N 36°60' E 023°54'.

Length 301 m; draft 12.2 m.

Type: Ship. MMSI: 351248000.

Date/timePositionNaut miles runAvg speedWind from/ knotsBaromVisibWave heightAir tempDewpointWater temp
2014-Oct-19 22:33N 36°60' E 023°54'2618.2
2014-Oct-19 21:08N 36°39' E 023°35'42319.5
2014-Oct-18 23:23N 36°27' E 014°48'1619.7
2014-Oct-18 22:34N 36°30' E 014°28'2020.0
2014-Oct-18 21:34N 36°34' E 014°04'2020.0
2014-Oct-18 20:32N 36°40' E 013°39'2020.1
2014-Oct-18 19:33N 36°45' E 013°15'2020.0
2014-Oct-18 18:34N 36°50' E 012°51'2020.0
2014-Oct-18 17:33N 36°53' E 012°27'2019.9
2014-Oct-18 16:33N 36°59' E 012°03'2020.0
2014-Oct-18 15:33N 37°09' E 011°42'4219.9
2014-Oct-18 13:28N 37°28' E 010°55'1819.9
2014-Oct-18 12:33N 37°33' E 010°33'2020.0
2014-Oct-18 11:34N 37°35' E 010°08'2119.9
2014-Oct-18 10:30N 37°31' E 009°42'1920.1
2014-Oct-18 09:33N 37°26' E 009°18'2120.1
2014-Oct-18 08:30N 37°22' E 008°53'1920.1
2014-Oct-18 07:33N 37°20' E 008°29'2220.8
2014-Oct-18 06:31N 37°20' E 008°02'13920.0
2014-Oct-17 23:33N 37°14' E 005°07'2020.1
2014-Oct-17 22:33N 37°13' E 004°41'2220.1
2014-Oct-17 21:28N 37°10' E 004°14'2420.1
2014-Oct-17 20:15N 37°06' E 003°44'9720.0
2014-Oct-17 15:23N 36°51' E 001°43'1720.3
2014-Oct-17 14:33N 36°49' E 001°23'2220.6
2014-Oct-17 13:30N 36°45' E 000°56'1920.2
2014-Oct-17 12:33N 36°42' E 000°32'2020.3
2014-Oct-17 11:33N 36°40' E 000°07'4220.0
2014-Oct-17 09:28N 36°33' W 000°44'20820.1
2014-Oct-16 23:05N 36°02' W 004°60'1220.7
2014-Oct-16 22:32N 35°60' W 005°14'21316.4
2014-Oct-16 09:33N 37°23' W 009°19'1918.9
2014-Oct-16 08:33N 37°39' W 009°07'1818.5
2014-Oct-16 07:33N 37°53' W 008°52'3 2.8
2014-Oct-16 06:31N 37°56' W 008°51'0 0.0
2014-Oct-16 05:31N 37°56' W 008°51'0 0.0
2014-Oct-16 04:31N 37°56' W 008°51'0 0.0
2014-Oct-16 03:31N 37°56' W 008°51'0 0.0
2014-Oct-16 02:31N 37°56' W 008°51'0 0.0
2014-Oct-16 01:31N 37°56' W 008°51'0 0.0
2014-Oct-16 00:31N 37°56' W 008°51'0 0.0
2014-Oct-15 23:31N 37°56' W 008°51'0 0.0
2014-Oct-15 22:31N 37°56' W 008°51'0 0.0
2014-Oct-15 21:31N 37°56' W 008°51'0 0.0
2014-Oct-15 20:31N 37°56' W 008°51'0 0.0
2014-Oct-15 19:28N 37°56' W 008°51'0 0.0
2014-Oct-15 18:31N 37°56' W 008°51'0 0.0
2014-Oct-15 17:31N 37°56' W 008°51'0 0.0
2014-Oct-15 16:28N 37°56' W 008°51'0 0.0
2014-Oct-15 15:31N 37°56' W 008°51'0 0.0
2014-Oct-15 14:31N 37°56' W 008°51'0 0.0
2014-Oct-15 13:31N 37°56' W 008°51'0 0.0
2014-Oct-15 12:31N 37°56' W 008°51'0 0.0
2014-Oct-15 11:31N 37°56' W 008°51'0 0.0
2014-Oct-15 10:31N 37°56' W 008°51'0 0.0
2014-Oct-15 09:31N 37°56' W 008°51'0 0.2
2014-Oct-15 08:34N 37°56' W 008°51'4 4.4
2014-Oct-15 07:33N 37°52' W 008°54'1 1.1
2014-Oct-15 06:33N 37°52' W 008°55'1 0.6
2014-Oct-15 05:34N 37°52' W 008°56'3 2.8
2014-Oct-15 04:34N 37°55' W 008°57'1 0.9
2014-Oct-15 03:34N 37°54' W 008°57'1 1.1
2014-Oct-15 02:34N 37°54' W 008°58'9 8.5
2014-Oct-15 01:33N 37°59' W 009°07'1717.5
2014-Oct-15 00:33N 38°08' W 009°26'2019.3
2014-Oct-14 23:32N 38°18' W 009°47'85217.4
2014-Oct-12 22:28N 50°33' E 000°18'1819.4
2014-Oct-12 21:33N 50°41' E 000°42'2221.5
2014-Oct-12 20:32N 50°55' E 001°09'2222.0
2014-Oct-12 19:33N 51°08' E 001°37'2120.8
2014-Oct-12 18:33N 51°24' E 001°58'1919.3
2014-Oct-12 17:33N 51°23' E 002°29'1615.6
2014-Oct-12 16:33N 51°25' E 002°54'1717.1
2014-Oct-12 15:33N 51°24' E 003°22'1212.5
2014-Oct-12 14:34N 51°26' E 003°41'10 9.8
2014-Oct-12 13:33N 51°23' E 003°56'7 7.0
2014-Oct-12 12:33N 51°22' E 004°07'6 6.2
2014-Oct-12 11:34N 51°21' E 004°17'0 0.0
2014-Oct-12 10:34N 51°21' E 004°17'2 2.0
2014-Oct-12 09:33N 51°20' E 004°20'0 0.3
2014-Oct-12 08:31N 51°20' E 004°20'0 0.0
2014-Oct-12 07:31N 51°20' E 004°20'0 0.0
2014-Oct-12 06:31N 51°20' E 004°20'0 0.0
2014-Oct-12 05:31N 51°20' E 004°20'0 0.0
2014-Oct-12 04:31N 51°20' E 004°20'0 0.0
2014-Oct-12 03:31N 51°20' E 004°20'0 0.0
2014-Oct-12 02:31N 51°20' E 004°20'0 0.0
2014-Oct-12 01:31N 51°20' E 004°20'0 0.0
2014-Oct-12 00:31N 51°20' E 004°20'0 0.0
2014-Oct-11 23:31N 51°20' E 004°20'0 0.0
2014-Oct-11 22:31N 51°20' E 004°20'0 0.0
2014-Oct-11 21:31N 51°20' E 004°20'0 0.0
2014-Oct-11 20:28N 51°20' E 004°20'0 0.0
2014-Oct-11 19:31N 51°20' E 004°20'0 0.0
2014-Oct-11 18:31N 51°20' E 004°20'0 0.0
2014-Oct-11 17:31N 51°20' E 004°20'0 0.0
2014-Oct-11 16:28N 51°20' E 004°20'0 0.0
2014-Oct-11 15:31N 51°20' E 004°20'0 0.0
2014-Oct-11 14:31N 51°20' E 004°20'0 0.0
2014-Oct-11 13:31N 51°20' E 004°20'0 0.0
2014-Oct-11 12:28N 51°20' E 004°20'0 0.0
2014-Oct-11 11:31N 51°20' E 004°20'0 0.0
2014-Oct-11 10:31N 51°20' E 004°20'0 0.0
2014-Oct-11 09:28N 51°20' E 004°20'0 0.0
2014-Oct-11 08:31N 51°20' E 004°20'2 2.2
2014-Oct-11 07:34N 51°21' E 004°17'0 0.4
2014-Oct-11 06:34N 51°21' E 004°17'6 6.3
2014-Oct-11 05:34N 51°22' E 004°07'8 7.6
2014-Oct-11 04:33N 51°22' E 003°55'1211.6
2014-Oct-11 03:33N 51°26' E 003°37'1111.4
2014-Oct-11 02:33N 51°24' E 003°19'1211.7
2014-Oct-11 01:33N 51°29' E 003°02'1616.0
2014-Oct-11 00:33N 51°43' E 003°14'9 9.4
2014-Oct-10 23:33N 51°52' E 003°17'1211.7
2014-Oct-10 22:33N 52°04' E 003°20'1916.5
2014-Oct-10 21:22N 52°23' E 003°26'2020.7
2014-Oct-10 20:24N 52°41' E 003°37'1720.3
2014-Oct-10 19:33N 52°55' E 003°55'1919.3
2014-Oct-10 18:33N 53°08' E 004°18'1818.4
2014-Oct-10 17:33N 53°23' E 004°35'1818.1
2014-Oct-10 16:34N 53°34' E 004°60'2120.8
2014-Oct-10 15:33N 53°40' E 005°33'2121.2
2014-Oct-10 14:33N 53°48' E 006°07'4920.4
2014-Oct-10 12:09N 53°60' E 007°27'1119.0
2014-Oct-10 11:33N 54°02' E 007°46'1717.2
2014-Oct-10 10:33N 54°00' E 008°15'1414.3
2014-Oct-10 09:34N 53°57' E 008°39'1313.4
2014-Oct-10 08:33N 53°51' E 008°60'1212.4
2014-Oct-10 07:33N 53°50' E 009°21'1514.6
2014-Oct-10 06:33N 53°38' E 009°32'1212.1
2014-Oct-10 05:33N 53°33' E 009°51'2 1.9
2014-Oct-10 04:32N 53°32' E 009°54'0 0.0
2014-Oct-10 03:32N 53°32' E 009°54'0 0.0
2014-Oct-10 02:32N 53°32' E 009°54'0 0.0
2014-Oct-10 01:32N 53°32' E 009°54'0 0.0
2014-Oct-10 00:32N 53°32' E 009°54'0 0.0
2014-Oct-09 23:32N 53°32' E 009°54'  

Dump ship's entire track history